sensor_id;sensor_type;location;lat;lon;timestamp;temperature;humidity
1644;DHT22;46825;51.99869940;8.49421771;2022-12-10T00:00:12;-0.80;99.90
1644;DHT22;46825;51.99869940;8.49421771;2022-12-10T00:01:15;-0.80;99.90
1644;DHT22;46825;51.99869940;8.49421771;2022-12-10T00:02:16;-0.70;99.90
1644;DHT22;46825;51.99869940;8.49421771;2022-12-10T00:03:17;-0.80;99.90
1644;DHT22;46825;51.99869940;8.49421771;2022-12-10T00:04:18;-0.70;99.90
1644;DHT22;46825;51.99869940;8.49421771;2022-12-10T00:05:19;-0.70;99.90
1644;DHT22;46825;51.99869940;8.49421771;2022-12-10T00:06:23;-0.70;99.90
1644;DHT22;46825;51.99869940;8.49421771;2022-12-10T00:07:23;-0.70;99.90
1644;DHT22;46825;51.99869940;8.49421771;2022-12-10T00:08:24;-0.70;99.90
1644;DHT22;46825;51.99869940;8.49421771;2022-12-10T00:09:25;-0.70;99.90
1644;DHT22;46825;51.99869940;8.49421771;2022-12-10T00:10:25;-2.00;99.90
1644;DHT22;46825;51.99869940;8.49421771;2022-12-10T00:11:26;-0.60;99.90
1644;DHT22;46825;51.99869940;8.49421771;2022-12-10T00:12:27;-0.50;99.90
1644;DHT22;46825;51.99869940;8.49421771;2022-12-10T00:13:27;-0.40;99.90
1644;DHT22;46825;51.99869940;8.49421771;2022-12-10T00:14:28;-0.30;99.90
1644;DHT22;46825;51.99869940;8.49421771;2022-12-10T00:15:28;-0.30;99.90
1644;DHT22;46825;51.99869940;8.49421771;2022-12-10T00:16:29;-0.20;99.90
1644;DHT22;46825;51.99869940;8.49421771;2022-12-10T00:17:30;-0.30;99.90
1644;DHT22;46825;51.99869940;8.49421771;2022-12-10T00:18:32;-0.20;99.90
1644;DHT22;46825;51.99869940;8.49421771;2022-12-10T00:19:33;-0.20;99.90
1644;DHT22;46825;51.99869940;8.49421771;2022-12-10T00:20:35;-0.10;99.90
1644;DHT22;46825;51.99869940;8.49421771;2022-12-10T00:21:36;-0.20;99.90
1644;DHT22;46825;51.99869940;8.49421771;2022-12-10T00:22:37;-0.30;99.90
1644;DHT22;46825;51.99869940;8.49421771;2022-12-10T00:23:38;-0.40;99.90
1644;DHT22;46825;51.99869940;8.49421771;2022-12-10T00:24:39;-0.50;99.90
1644;DHT22;46825;51.99869940;8.49421771;2022-12-10T00:25:39;-0.40;99.90
1644;DHT22;46825;51.99869940;8.49421771;2022-12-10T00:26:40;-0.40;99.90
1644;DHT22;46825;51.99869940;8.49421771;2022-12-10T00:27:40;-0.40;99.90
1644;DHT22;46825;51.99869940;8.49421771;2022-12-10T00:28:42;-0.40;99.90
1644;DHT22;46825;51.99869940;8.49421771;2022-12-10T00:29:42;-0.50;99.90
1644;DHT22;46825;51.99869940;8.49421771;2022-12-10T00:30:43;-0.40;99.90
1644;DHT22;46825;51.99869940;8.49421771;2022-12-10T00:31:44;-2.60;99.90
1644;DHT22;46825;51.99869940;8.49421771;2022-12-10T00:32:44;-0.30;99.90
1644;DHT22;46825;51.99869940;8.49421771;2022-12-10T00:33:45;-0.30;99.90
1644;DHT22;46825;51.99869940;8.49421771;2022-12-10T00:34:46;-0.30;99.90
1644;DHT22;46825;51.99869940;8.49421771;2022-12-10T00:35:46;-0.30;99.90
1644;DHT22;46825;51.99869940;8.49421771;2022-12-10T00:36:48;-0.30;99.90
1644;DHT22;46825;51.99869940;8.49421771;2022-12-10T00:37:49;-0.20;99.90
1644;DHT22;46825;51.99869940;8.49421771;2022-12-10T00:38:50;-0.10;99.90
1644;DHT22;46825;51.99869940;8.49421771;2022-12-10T00:39:51;-0.20;99.90
1644;DHT22;46825;51.99869940;8.49421771;2022-12-10T00:40:51;-0.20;99.90
1644;DHT22;46825;51.99869940;8.49421771;2022-12-10T00:41:52;-0.20;99.90
1644;DHT22;46825;51.99869940;8.49421771;2022-12-10T00:42:52;-0.10;99.90
1644;DHT22;46825;51.99869940;8.49421771;2022-12-10T00:43:53;-0.20;99.90
1644;DHT22;46825;51.99869940;8.49421771;2022-12-10T00:44:53;0.00;99.90
1644;DHT22;46825;51.99869940;8.49421771;2022-12-10T00:45:54;-0.10;99.90
1644;DHT22;46825;51.99869940;8.49421771;2022-12-10T00:46:55;-0.20;99.90
1644;DHT22;46825;51.99869940;8.49421771;2022-12-10T00:47:55;-0.20;99.90
1644;DHT22;46825;51.99869940;8.49421771;2022-12-10T00:48:57;0.70;99.90
1644;DHT22;46825;51.99869940;8.49421771;2022-12-10T00:49:57;-0.10;99.90
1644;DHT22;46825;51.99869940;8.49421771;2022-12-10T00:51:08;-0.10;99.90
1644;DHT22;46825;51.99869940;8.49421771;2022-12-10T00:52:09;0.10;99.90
1644;DHT22;46825;51.99869940;8.49421771;2022-12-10T00:53:10;0.20;99.90
1644;DHT22;46825;51.99869940;8.49421771;2022-12-10T00:54:10;0.20;99.90
1644;DHT22;46825;51.99869940;8.49421771;2022-12-10T00:55:11;0.20;99.90
1644;DHT22;46825;51.99869940;8.49421771;2022-12-10T00:56:14;1.50;99.90
1644;DHT22;46825;51.99869940;8.49421771;2022-12-10T00:57:15;0.30;99.90
1644;DHT22;46825;51.99869940;8.49421771;2022-12-10T00:58:15;0.50;99.90
1644;DHT22;46825;51.99869940;8.49421771;2022-12-10T00:59:16;0.50;99.90
1644;DHT22;46825;51.99869940;8.49421771;2022-12-10T01:00:16;0.60;99.90
1644;DHT22;46825;51.99869940;8.49421771;2022-12-10T01:02:27;0.70;99.90
1644;DHT22;46825;51.99869940;8.49421771;2022-12-10T01:03:27;0.70;99.90
1644;DHT22;46825;51.99869940;8.49421771;2022-12-10T01:04:28;0.70;99.90
1644;DHT22;46825;51.99869940;8.49421771;2022-12-10T01:05:28;0.60;99.90
1644;DHT22;46825;51.99869940;8.49421771;2022-12-10T01:06:41;0.50;99.90
1644;DHT22;46825;51.99869940;8.49421771;2022-12-10T01:07:42;0.50;99.90
1644;DHT22;46825;51.99869940;8.49421771;2022-12-10T01:08:43;0.50;99.90
1644;DHT22;46825;51.99869940;8.49421771;2022-12-10T01:09:44;1.60;99.90
1644;DHT22;46825;51.99869940;8.49421771;2022-12-10T01:10:45;0.70;99.90
1644;DHT22;46825;51.99869940;8.49421771;2022-12-10T01:11:53;0.70;99.90
1644;DHT22;46825;51.99869940;8.49421771;2022-12-10T01:12:54;0.80;99.90
1644;DHT22;46825;51.99869940;8.49421771;2022-12-10T01:13:55;0.80;99.90
1644;DHT22;46825;51.99869940;8.49421771;2022-12-10T01:14:55;0.70;99.90
1644;DHT22;46825;51.99869940;8.49421771;2022-12-10T01:15:56;0.80;99.90
1644;DHT22;46825;51.99869940;8.49421771;2022-12-10T01:16:59;0.80;99.90
1644;DHT22;46825;51.99869940;8.49421771;2022-12-10T01:18:00;0.90;99.90
1644;DHT22;46825;51.99869940;8.49421771;2022-12-10T01:19:00;0.90;99.90
1644;DHT22;46825;51.99869940;8.49421771;2022-12-10T01:20:01;0.90;99.90
1644;DHT22;46825;51.99869940;8.49421771;2022-12-10T01:21:03;1.00;99.90
1644;DHT22;46825;51.99869940;8.49421771;2022-12-10T01:22:04;1.00;99.90
1644;DHT22;46825;51.99869940;8.49421771;2022-12-10T01:23:05;1.00;99.90
1644;DHT22;46825;51.99869940;8.49421771;2022-12-10T01:24:06;1.10;99.90
1644;DHT22;46825;51.99869940;8.49421771;2022-12-10T01:25:07;1.10;99.90
1644;DHT22;46825;51.99869940;8.49421771;2022-12-10T01:26:11;1.10;99.90
1644;DHT22;46825;51.99869940;8.49421771;2022-12-10T01:27:12;1.10;99.90
1644;DHT22;46825;51.99869940;8.49421771;2022-12-10T01:28:12;1.10;99.90
1644;DHT22;46825;51.99869940;8.49421771;2022-12-10T01:29:13;1.00;99.90
1644;DHT22;46825;51.99869940;8.49421771;2022-12-10T01:30:13;1.00;99.90
1644;DHT22;46825;51.99869940;8.49421771;2022-12-10T01:31:22;1.00;99.90
1644;DHT22;46825;51.99869940;8.49421771;2022-12-10T01:32:23;1.00;99.90
1644;DHT22;46825;51.99869940;8.49421771;2022-12-10T01:33:24;0.90;99.90
1644;DHT22;46825;51.99869940;8.49421771;2022-12-10T01:34:25;0.80;99.90
1644;DHT22;46825;51.99869940;8.49421771;2022-12-10T01:35:25;0.70;99.90
1644;DHT22;46825;51.99869940;8.49421771;2022-12-10T01:36:38;0.60;99.90
1644;DHT22;46825;51.99869940;8.49421771;2022-12-10T01:37:38;0.60;99.90
1644;DHT22;46825;51.99869940;8.49421771;2022-12-10T01:38:39;0.50;99.90
1644;DHT22;46825;51.99869940;8.49421771;2022-12-10T01:39:40;0.40;99.90
1644;DHT22;46825;51.99869940;8.49421771;2022-12-10T01:40:40;0.40;99.90
1644;DHT22;46825;51.99869940;8.49421771;2022-12-10T01:42:01;0.40;99.90
1644;DHT22;46825;51.99869940;8.49421771;2022-12-10T01:43:02;0.50;99.90
1644;DHT22;46825;51.99869940;8.49421771;2022-12-10T01:45:11;0.70;99.90
1644;DHT22;46825;51.99869940;8.49421771;2022-12-10T01:46:12;0.70;99.90
1644;DHT22;46825;51.99869940;8.49421771;2022-12-10T01:47:13;0.90;99.90
1644;DHT22;46825;51.99869940;8.49421771;2022-12-10T01:48:13;1.00;99.90
1644;DHT22;46825;51.99869940;8.49421771;2022-12-10T01:50:46;0.90;99.90
1644;DHT22;46825;51.99869940;8.49421771;2022-12-10T01:51:51;0.90;99.90
1644;DHT22;46825;51.99869940;8.49421771;2022-12-10T01:52:52;0.80;99.90
1644;DHT22;46825;51.99869940;8.49421771;2022-12-10T01:53:53;0.80;99.90
1644;DHT22;46825;51.99869940;8.49421771;2022-12-10T01:54:54;0.80;99.90
1644;DHT22;46825;51.99869940;8.49421771;2022-12-10T01:55:54;0.80;99.90
1644;DHT22;46825;51.99869940;8.49421771;2022-12-10T01:57:03;0.80;99.90
1644;DHT22;46825;51.99869940;8.49421771;2022-12-10T01:58:05;0.90;99.90
1644;DHT22;46825;51.99869940;8.49421771;2022-12-10T01:59:06;0.90;99.90
1644;DHT22;46825;51.99869940;8.49421771;2022-12-10T02:00:07;0.90;99.90
1644;DHT22;46825;51.99869940;8.49421771;2022-12-10T02:02:17;0.80;99.90
1644;DHT22;46825;51.99869940;8.49421771;2022-12-10T02:04:04;0.80;99.90
1644;DHT22;46825;51.99869940;8.49421771;2022-12-10T02:09:04;0.70;99.90
1644;DHT22;46825;51.99869940;8.49421771;2022-12-10T02:11:24;0.80;99.90
1644;DHT22;46825;51.99869940;8.49421771;2022-12-10T02:12:41;0.80;99.90
1644;DHT22;46825;51.99869940;8.49421771;2022-12-10T02:14:02;0.80;99.90
1644;DHT22;46825;51.99869940;8.49421771;2022-12-10T02:16:29;0.80;99.90
1644;DHT22;46825;51.99869940;8.49421771;2022-12-10T02:17:41;1.10;99.90
1644;DHT22;46825;51.99869940;8.49421771;2022-12-10T02:18:49;1.30;99.90
1644;DHT22;46825;51.99869940;8.49421771;2022-12-10T02:20:11;1.30;99.90
1644;DHT22;46825;51.99869940;8.49421771;2022-12-10T02:21:19;1.40;99.90
1644;DHT22;46825;51.99869940;8.49421771;2022-12-10T02:22:23;1.40;99.90
1644;DHT22;46825;51.99869940;8.49421771;2022-12-10T02:23:28;1.50;99.90
1644;DHT22;46825;51.99869940;8.49421771;2022-12-10T02:24:34;1.40;99.90
1644;DHT22;46825;51.99869940;8.49421771;2022-12-10T02:28:17;1.30;99.90
1644;DHT22;46825;51.99869940;8.49421771;2022-12-10T02:29:24;1.20;99.90
1644;DHT22;46825;51.99869940;8.49421771;2022-12-10T02:30:25;1.30;99.90
1644;DHT22;46825;51.99869940;8.49421771;2022-12-10T02:31:28;1.30;99.90
1644;DHT22;46825;51.99869940;8.49421771;2022-12-10T02:32:35;1.20;99.90
1644;DHT22;46825;51.99869940;8.49421771;2022-12-10T02:33:42;1.20;99.90
1644;DHT22;46825;51.99869940;8.49421771;2022-12-10T02:34:48;1.20;99.90
1644;DHT22;46825;51.99869940;8.49421771;2022-12-10T02:35:50;1.10;99.90
1644;DHT22;46825;51.99869940;8.49421771;2022-12-10T02:36:53;1.10;99.90
1644;DHT22;46825;51.99869940;8.49421771;2022-12-10T02:38:11;1.20;99.90
1644;DHT22;46825;51.99869940;8.49421771;2022-12-10T02:39:17;1.10;99.90
1644;DHT22;46825;51.99869940;8.49421771;2022-12-10T02:40:22;1.20;99.90
1644;DHT22;46825;51.99869940;8.49421771;2022-12-10T02:41:32;1.30;99.90
1644;DHT22;46825;51.99869940;8.49421771;2022-12-10T02:42:37;1.40;99.90
1644;DHT22;46825;51.99869940;8.49421771;2022-12-10T02:43:39;1.50;99.90
1644;DHT22;46825;51.99869940;8.49421771;2022-12-10T02:44:40;1.40;99.90
1644;DHT22;46825;51.99869940;8.49421771;2022-12-10T02:45:43;1.40;99.90
1644;DHT22;46825;51.99869940;8.49421771;2022-12-10T02:46:47;1.30;99.90
1644;DHT22;46825;51.99869940;8.49421771;2022-12-10T02:47:50;1.30;99.90
1644;DHT22;46825;51.99869940;8.49421771;2022-12-10T02:48:52;1.20;99.90
1644;DHT22;46825;51.99869940;8.49421771;2022-12-10T02:49:55;1.30;99.90
1644;DHT22;46825;51.99869940;8.49421771;2022-12-10T02:50:56;1.30;99.90
1644;DHT22;46825;51.99869940;8.49421771;2022-12-10T02:51:57;1.30;99.90
1644;DHT22;46825;51.99869940;8.49421771;2022-12-10T02:52:57;1.40;99.90
1644;DHT22;46825;51.99869940;8.49421771;2022-12-10T02:54:04;1.40;99.90
1644;DHT22;46825;51.99869940;8.49421771;2022-12-10T02:55:05;1.40;99.90
1644;DHT22;46825;51.99869940;8.49421771;2022-12-10T02:56:36;0.00;99.90
1644;DHT22;46825;51.99869940;8.49421771;2022-12-10T02:57:50;1.40;99.90
1644;DHT22;46825;51.99869940;8.49421771;2022-12-10T02:59:19;1.40;99.90
1644;DHT22;46825;51.99869940;8.49421771;2022-12-10T03:00:23;1.60;99.90
1644;DHT22;46825;51.99869940;8.49421771;2022-12-10T03:01:57;1.60;99.90
1644;DHT22;46825;51.99869940;8.49421771;2022-12-10T03:04:22;1.60;99.90
1644;DHT22;46825;51.99869940;8.49421771;2022-12-10T03:05:52;1.60;99.90
1644;DHT22;46825;51.99869940;8.49421771;2022-12-10T03:06:57;1.70;99.90
1644;DHT22;46825;51.99869940;8.49421771;2022-12-10T03:09:32;1.60;99.90
1644;DHT22;46825;51.99869940;8.49421771;2022-12-10T03:10:41;1.60;99.90
1644;DHT22;46825;51.99869940;8.49421771;2022-12-10T03:11:44;1.70;99.90
1644;DHT22;46825;51.99869940;8.49421771;2022-12-10T03:13:05;0.10;99.90
1644;DHT22;46825;51.99869940;8.49421771;2022-12-10T03:15:13;1.60;99.90
1644;DHT22;46825;51.99869940;8.49421771;2022-12-10T03:16:15;4.10;99.90
1644;DHT22;46825;51.99869940;8.49421771;2022-12-10T03:17:17;1.70;99.90
1644;DHT22;46825;51.99869940;8.49421771;2022-12-10T03:18:23;1.70;99.90
1644;DHT22;46825;51.99869940;8.49421771;2022-12-10T03:19:34;1.70;99.90
1644;DHT22;46825;51.99869940;8.49421771;2022-12-10T03:20:39;1.80;99.90
1644;DHT22;46825;51.99869940;8.49421771;2022-12-10T03:21:41;1.70;99.90
1644;DHT22;46825;51.99869940;8.49421771;2022-12-10T03:22:45;1.80;99.90
1644;DHT22;46825;51.99869940;8.49421771;2022-12-10T03:23:48;1.80;99.90
1644;DHT22;46825;51.99869940;8.49421771;2022-12-10T03:24:50;2.30;99.90
1644;DHT22;46825;51.99869940;8.49421771;2022-12-10T03:25:52;1.70;99.90
1644;DHT22;46825;51.99869940;8.49421771;2022-12-10T03:26:52;1.60;99.90
1644;DHT22;46825;51.99869940;8.49421771;2022-12-10T03:27:55;1.60;99.90
1644;DHT22;46825;51.99869940;8.49421771;2022-12-10T03:29:03;1.50;99.90
1644;DHT22;46825;51.99869940;8.49421771;2022-12-10T03:30:06;1.60;99.90
1644;DHT22;46825;51.99869940;8.49421771;2022-12-10T03:31:09;1.50;99.90
1644;DHT22;46825;51.99869940;8.49421771;2022-12-10T03:32:10;-1.10;99.90
1644;DHT22;46825;51.99869940;8.49421771;2022-12-10T03:33:12;1.40;99.90
1644;DHT22;46825;51.99869940;8.49421771;2022-12-10T03:34:13;1.40;99.90
1644;DHT22;46825;51.99869940;8.49421771;2022-12-10T03:35:14;1.40;99.90
1644;DHT22;46825;51.99869940;8.49421771;2022-12-10T03:36:18;1.40;99.90
1644;DHT22;46825;51.99869940;8.49421771;2022-12-10T03:37:21;1.40;99.90
1644;DHT22;46825;51.99869940;8.49421771;2022-12-10T03:38:22;1.40;99.90
1644;DHT22;46825;51.99869940;8.49421771;2022-12-10T03:39:23;1.40;99.90
1644;DHT22;46825;51.99869940;8.49421771;2022-12-10T03:40:24;1.40;99.90
1644;DHT22;46825;51.99869940;8.49421771;2022-12-10T03:41:25;1.60;99.90
1644;DHT22;46825;51.99869940;8.49421771;2022-12-10T03:42:26;1.60;99.90
1644;DHT22;46825;51.99869940;8.49421771;2022-12-10T03:43:26;1.70;99.90
1644;DHT22;46825;51.99869940;8.49421771;2022-12-10T03:44:32;1.70;99.90
1644;DHT22;46825;51.99869940;8.49421771;2022-12-10T03:45:33;1.60;99.90
1644;DHT22;46825;51.99869940;8.49421771;2022-12-10T03:46:34;1.70;99.90
1644;DHT22;46825;51.99869940;8.49421771;2022-12-10T03:47:34;1.60;99.90
1644;DHT22;46825;51.99869940;8.49421771;2022-12-10T03:48:35;1.70;99.90
1644;DHT22;46825;51.99869940;8.49421771;2022-12-10T03:49:36;1.70;99.90
1644;DHT22;46825;51.99869940;8.49421771;2022-12-10T03:50:36;1.80;99.90
1644;DHT22;46825;51.99869940;8.49421771;2022-12-10T03:51:37;1.70;99.90
1644;DHT22;46825;51.99869940;8.49421771;2022-12-10T03:52:37;1.80;99.90
1644;DHT22;46825;51.99869940;8.49421771;2022-12-10T03:53:38;1.70;99.90
1644;DHT22;46825;51.99869940;8.49421771;2022-12-10T03:54:39;1.60;99.90
1644;DHT22;46825;51.99869940;8.49421771;2022-12-10T03:55:39;1.60;99.90
1644;DHT22;46825;51.99869940;8.49421771;2022-12-10T03:56:40;1.60;99.90
1644;DHT22;46825;51.99869940;8.49421771;2022-12-10T03:57:41;1.60;99.90
1644;DHT22;46825;51.99869940;8.49421771;2022-12-10T03:58:41;1.60;99.90
1644;DHT22;46825;51.99869940;8.49421771;2022-12-10T03:59:42;1.60;99.90
1644;DHT22;46825;51.99869940;8.49421771;2022-12-10T04:00:42;1.60;99.90
1644;DHT22;46825;51.99869940;8.49421771;2022-12-10T04:01:44;1.50;99.90
1644;DHT22;46825;51.99869940;8.49421771;2022-12-10T04:02:44;1.50;99.90
1644;DHT22;46825;51.99869940;8.49421771;2022-12-10T04:03:45;1.40;99.90
1644;DHT22;46825;51.99869940;8.49421771;2022-12-10T04:04:46;1.30;99.90
1644;DHT22;46825;51.99869940;8.49421771;2022-12-10T04:05:46;1.20;99.90
1644;DHT22;46825;51.99869940;8.49421771;2022-12-10T04:06:47;1.20;99.90
1644;DHT22;46825;51.99869940;8.49421771;2022-12-10T04:07:48;1.20;99.90
1644;DHT22;46825;51.99869940;8.49421771;2022-12-10T04:08:49;4.10;99.90
1644;DHT22;46825;51.99869940;8.49421771;2022-12-10T04:09:49;1.20;99.90
1644;DHT22;46825;51.99869940;8.49421771;2022-12-10T04:10:50;1.20;99.90
1644;DHT22;46825;51.99869940;8.49421771;2022-12-10T04:11:55;1.20;99.90
1644;DHT22;46825;51.99869940;8.49421771;2022-12-10T04:12:56;1.20;99.90
1644;DHT22;46825;51.99869940;8.49421771;2022-12-10T04:14:15;1.30;99.90
1644;DHT22;46825;51.99869940;8.49421771;2022-12-10T04:15:38;1.30;99.90
1644;DHT22;46825;51.99869940;8.49421771;2022-12-10T04:16:58;1.20;99.90
1644;DHT22;46825;51.99869940;8.49421771;2022-12-10T04:17:59;1.30;99.90
1644;DHT22;46825;51.99869940;8.49421771;2022-12-10T04:19:04;1.40;99.90
1644;DHT22;46825;51.99869940;8.49421771;2022-12-10T04:20:05;1.40;99.90
1644;DHT22;46825;51.99869940;8.49421771;2022-12-10T04:21:27;1.40;99.90
1644;DHT22;46825;51.99869940;8.49421771;2022-12-10T04:22:47;1.50;99.90
1644;DHT22;46825;51.99869940;8.49421771;2022-12-10T04:24:11;1.50;99.90
1644;DHT22;46825;51.99869940;8.49421771;2022-12-10T04:25:30;1.70;99.90
1644;DHT22;46825;51.99869940;8.49421771;2022-12-10T04:26:49;1.70;99.90
1644;DHT22;46825;51.99869940;8.49421771;2022-12-10T04:27:53;1.70;99.90
1644;DHT22;46825;51.99869940;8.49421771;2022-12-10T04:28:53;1.70;99.90
1644;DHT22;46825;51.99869940;8.49421771;2022-12-10T04:29:55;1.70;99.90
1644;DHT22;46825;51.99869940;8.49421771;2022-12-10T04:30:55;1.60;99.90
1644;DHT22;46825;51.99869940;8.49421771;2022-12-10T04:31:56;1.60;99.90
1644;DHT22;46825;51.99869940;8.49421771;2022-12-10T04:32:57;1.50;99.90
1644;DHT22;46825;51.99869940;8.49421771;2022-12-10T04:33:58;1.50;99.90
1644;DHT22;46825;51.99869940;8.49421771;2022-12-10T04:34:59;1.50;99.90
1644;DHT22;46825;51.99869940;8.49421771;2022-12-10T04:35:59;1.40;99.90
1644;DHT22;46825;51.99869940;8.49421771;2022-12-10T04:37:01;3.40;99.90
1644;DHT22;46825;51.99869940;8.49421771;2022-12-10T04:38:02;1.40;99.90
1644;DHT22;46825;51.99869940;8.49421771;2022-12-10T04:39:03;1.50;99.90
1644;DHT22;46825;51.99869940;8.49421771;2022-12-10T04:40:05;1.50;99.90
1644;DHT22;46825;51.99869940;8.49421771;2022-12-10T04:41:06;1.50;99.90
1644;DHT22;46825;51.99869940;8.49421771;2022-12-10T04:42:16;1.40;99.90
1644;DHT22;46825;51.99869940;8.49421771;2022-12-10T04:43:17;1.30;99.90
1644;DHT22;46825;51.99869940;8.49421771;2022-12-10T04:44:18;1.30;99.90
1644;DHT22;46825;51.99869940;8.49421771;2022-12-10T04:45:18;1.20;99.90
1644;DHT22;46825;51.99869940;8.49421771;2022-12-10T04:46:19;1.20;99.90
1644;DHT22;46825;51.99869940;8.49421771;2022-12-10T04:47:20;1.10;99.90
1644;DHT22;46825;51.99869940;8.49421771;2022-12-10T04:48:21;1.90;99.90
1644;DHT22;46825;51.99869940;8.49421771;2022-12-10T04:49:22;1.20;99.90
1644;DHT22;46825;51.99869940;8.49421771;2022-12-10T04:50:23;1.00;99.90
1644;DHT22;46825;51.99869940;8.49421771;2022-12-10T04:51:23;4.00;99.90
1644;DHT22;46825;51.99869940;8.49421771;2022-12-10T04:52:24;1.10;99.90
1644;DHT22;46825;51.99869940;8.49421771;2022-12-10T04:53:25;1.10;99.90
1644;DHT22;46825;51.99869940;8.49421771;2022-12-10T04:54:25;1.10;99.90
1644;DHT22;46825;51.99869940;8.49421771;2022-12-10T04:55:26;1.20;99.90
1644;DHT22;46825;51.99869940;8.49421771;2022-12-10T04:56:27;1.20;99.90
1644;DHT22;46825;51.99869940;8.49421771;2022-12-10T04:57:27;1.10;99.90
1644;DHT22;46825;51.99869940;8.49421771;2022-12-10T04:58:28;1.20;99.90
1644;DHT22;46825;51.99869940;8.49421771;2022-12-10T04:59:31;1.20;99.90
1644;DHT22;46825;51.99869940;8.49421771;2022-12-10T05:00:31;1.10;99.90
1644;DHT22;46825;51.99869940;8.49421771;2022-12-10T05:01:33;1.20;99.90
1644;DHT22;46825;51.99869940;8.49421771;2022-12-10T05:02:33;1.30;99.90
1644;DHT22;46825;51.99869940;8.49421771;2022-12-10T05:03:34;1.20;99.90
1644;DHT22;46825;51.99869940;8.49421771;2022-12-10T05:04:35;1.20;99.90
1644;DHT22;46825;51.99869940;8.49421771;2022-12-10T05:05:36;1.20;99.90
1644;DHT22;46825;51.99869940;8.49421771;2022-12-10T05:06:37;1.20;99.90
1644;DHT22;46825;51.99869940;8.49421771;2022-12-10T05:07:37;1.20;99.90
1644;DHT22;46825;51.99869940;8.49421771;2022-12-10T05:08:39;1.20;99.90
1644;DHT22;46825;51.99869940;8.49421771;2022-12-10T05:09:40;1.20;99.90
1644;DHT22;46825;51.99869940;8.49421771;2022-12-10T05:10:40;1.20;99.90
1644;DHT22;46825;51.99869940;8.49421771;2022-12-10T05:11:42;1.30;99.90
1644;DHT22;46825;51.99869940;8.49421771;2022-12-10T05:12:44;1.30;99.90
1644;DHT22;46825;51.99869940;8.49421771;2022-12-10T05:13:45;1.50;99.90
1644;DHT22;46825;51.99869940;8.49421771;2022-12-10T05:14:46;1.50;99.90
1644;DHT22;46825;51.99869940;8.49421771;2022-12-10T05:15:47;1.60;99.90
1644;DHT22;46825;51.99869940;8.49421771;2022-12-10T05:16:50;1.60;99.90
1644;DHT22;46825;51.99869940;8.49421771;2022-12-10T05:17:51;1.70;99.90
1644;DHT22;46825;51.99869940;8.49421771;2022-12-10T05:18:53;1.80;99.90
1644;DHT22;46825;51.99869940;8.49421771;2022-12-10T05:19:53;1.80;99.90
1644;DHT22;46825;51.99869940;8.49421771;2022-12-10T05:20:54;1.80;99.90
1644;DHT22;46825;51.99869940;8.49421771;2022-12-10T05:21:55;1.80;99.90
1644;DHT22;46825;51.99869940;8.49421771;2022-12-10T05:23:14;1.90;99.90
1644;DHT22;46825;51.99869940;8.49421771;2022-12-10T05:24:30;1.90;99.90
1644;DHT22;46825;51.99869940;8.49421771;2022-12-10T05:25:30;1.90;99.90
1644;DHT22;46825;51.99869940;8.49421771;2022-12-10T05:26:31;1.80;99.90
1644;DHT22;46825;51.99869940;8.49421771;2022-12-10T05:27:33;1.80;99.90
1644;DHT22;46825;51.99869940;8.49421771;2022-12-10T05:28:39;1.80;99.90
1644;DHT22;46825;51.99869940;8.49421771;2022-12-10T05:29:40;1.80;99.90
1644;DHT22;46825;51.99869940;8.49421771;2022-12-10T05:30:40;1.80;99.90
1644;DHT22;46825;51.99869940;8.49421771;2022-12-10T05:31:41;1.80;99.90
1644;DHT22;46825;51.99869940;8.49421771;2022-12-10T05:32:41;1.80;99.90
1644;DHT22;46825;51.99869940;8.49421771;2022-12-10T05:33:42;1.90;99.90
1644;DHT22;46825;51.99869940;8.49421771;2022-12-10T05:34:43;1.90;99.90
1644;DHT22;46825;51.99869940;8.49421771;2022-12-10T05:35:43;1.90;99.90
1644;DHT22;46825;51.99869940;8.49421771;2022-12-10T05:36:44;2.00;99.90
1644;DHT22;46825;51.99869940;8.49421771;2022-12-10T05:37:44;2.00;99.90
1644;DHT22;46825;51.99869940;8.49421771;2022-12-10T05:38:45;2.00;99.90
1644;DHT22;46825;51.99869940;8.49421771;2022-12-10T05:39:47;1.90;99.90
1644;DHT22;46825;51.99869940;8.49421771;2022-12-10T05:40:48;1.90;99.90
1644;DHT22;46825;51.99869940;8.49421771;2022-12-10T05:41:49;1.90;99.90
1644;DHT22;46825;51.99869940;8.49421771;2022-12-10T05:42:49;1.80;99.90
1644;DHT22;46825;51.99869940;8.49421771;2022-12-10T05:43:50;1.80;99.90
1644;DHT22;46825;51.99869940;8.49421771;2022-12-10T05:44:51;1.90;99.90
1644;DHT22;46825;51.99869940;8.49421771;2022-12-10T05:45:52;1.80;99.90
1644;DHT22;46825;51.99869940;8.49421771;2022-12-10T05:46:52;1.80;99.90
1644;DHT22;46825;51.99869940;8.49421771;2022-12-10T05:47:53;1.90;99.90
1644;DHT22;46825;51.99869940;8.49421771;2022-12-10T05:48:54;1.90;99.90
1644;DHT22;46825;51.99869940;8.49421771;2022-12-10T05:49:54;1.90;99.90
1644;DHT22;46825;51.99869940;8.49421771;2022-12-10T05:50:55;1.90;99.90
1644;DHT22;46825;51.99869940;8.49421771;2022-12-10T05:51:56;1.90;99.90
1644;DHT22;46825;51.99869940;8.49421771;2022-12-10T05:52:57;1.90;99.90
1644;DHT22;46825;51.99869940;8.49421771;2022-12-10T05:53:58;2.00;99.90
1644;DHT22;46825;51.99869940;8.49421771;2022-12-10T05:54:59;1.90;99.90
1644;DHT22;46825;51.99869940;8.49421771;2022-12-10T05:56:01;2.00;99.90
1644;DHT22;46825;51.99869940;8.49421771;2022-12-10T05:57:02;2.00;99.90
1644;DHT22;46825;51.99869940;8.49421771;2022-12-10T05:58:02;2.00;99.90
1644;DHT22;46825;51.99869940;8.49421771;2022-12-10T05:59:03;1.90;99.90
1644;DHT22;46825;51.99869940;8.49421771;2022-12-10T06:00:05;2.00;99.90
1644;DHT22;46825;51.99869940;8.49421771;2022-12-10T06:01:17;1.90;99.90
1644;DHT22;46825;51.99869940;8.49421771;2022-12-10T06:02:18;1.80;99.90
1644;DHT22;46825;51.99869940;8.49421771;2022-12-10T06:03:18;1.80;99.90
1644;DHT22;46825;51.99869940;8.49421771;2022-12-10T06:04:19;1.70;99.90
1644;DHT22;46825;51.99869940;8.49421771;2022-12-10T06:05:19;1.60;99.90
1644;DHT22;46825;51.99869940;8.49421771;2022-12-10T06:06:22;1.70;99.90
1644;DHT22;46825;51.99869940;8.49421771;2022-12-10T06:07:23;1.70;99.90
1644;DHT22;46825;51.99869940;8.49421771;2022-12-10T06:08:23;1.60;99.90
1644;DHT22;46825;51.99869940;8.49421771;2022-12-10T06:09:24;1.60;99.90
1644;DHT22;46825;51.99869940;8.49421771;2022-12-10T06:10:24;1.70;99.90
1644;DHT22;46825;51.99869940;8.49421771;2022-12-10T06:11:25;1.70;99.90